createdAt,value
2019-02-27T00:01:42.184Z,3.00
2019-02-27T00:06:34.445Z,2.90
2019-02-27T00:11:27.100Z,2.90
2019-02-27T00:16:19.585Z,2.90
2019-02-27T00:21:12.346Z,2.80
2019-02-27T00:26:08.741Z,2.80
2019-02-27T00:30:58.808Z,2.80
2019-02-27T00:35:51.409Z,2.90
2019-02-27T00:40:44.129Z,2.70
2019-02-27T00:45:39.663Z,2.60
2019-02-27T00:50:30.474Z,2.50
2019-02-27T00:55:23.082Z,2.40
2019-02-27T01:00:18.869Z,2.30
2019-02-27T01:05:11.670Z,2.20
2019-02-27T01:10:05.681Z,2.10
2019-02-27T01:14:58.393Z,2.10
2019-02-27T01:19:51.077Z,2.00
2019-02-27T01:24:45.104Z,1.90
2019-02-27T01:29:37.530Z,1.80
2019-02-27T01:34:30.385Z,1.90
2019-02-27T01:39:23.152Z,1.80
2019-02-27T01:44:15.715Z,1.70
2019-02-27T01:49:08.020Z,1.60
2019-02-27T01:54:00.653Z,1.60
2019-02-27T01:58:53.165Z,1.50
2019-02-27T02:03:47.487Z,1.40
2019-02-27T02:08:40.117Z,1.40
2019-02-27T02:13:35.812Z,1.40
2019-02-27T02:18:49.220Z,1.30
2019-02-27T02:23:59.574Z,1.20
2019-02-27T02:29:11.581Z,1.10
2019-02-27T02:34:26.914Z,1.10
2019-02-27T02:39:28.458Z,1.10
2019-02-27T02:44:26.463Z,1.10
2019-02-27T02:49:21.981Z,1.00
2019-02-27T02:54:26.294Z,1.10
2019-02-27T02:59:50.206Z,1.10
2019-02-27T03:05:00.895Z,1.10
2019-02-27T03:10:13.245Z,1.10
2019-02-27T03:15:28.832Z,1.00
2019-02-27T03:20:40.883Z,1.00
2019-02-27T03:26:09.350Z,1.00
2019-02-27T03:31:18.496Z,1.00
2019-02-27T03:36:19.194Z,0.90
2019-02-27T03:41:22.791Z,0.90
2019-02-27T03:46:17.253Z,0.80
2019-02-27T03:51:24.314Z,0.70
2019-02-27T03:56:33.418Z,0.70
2019-02-27T04:01:46.685Z,0.70
2019-02-27T04:06:56.275Z,0.60
2019-02-27T04:11:48.180Z,0.50
2019-02-27T04:16:40.884Z,0.50
2019-02-27T04:21:33.652Z,0.40
2019-02-27T04:26:26.128Z,0.40
2019-02-27T04:31:18.559Z,0.40
2019-02-27T04:36:12.706Z,0.30
2019-02-27T04:41:05.700Z,0.30
2019-02-27T04:45:57.977Z,0.30
2019-02-27T04:50:50.358Z,0.30
2019-02-27T04:55:43.154Z,0.30
2019-02-27T05:00:35.476Z,0.30
2019-02-27T05:05:28.173Z,0.30
2019-02-27T05:10:20.549Z,0.20
2019-02-27T05:15:14.720Z,0.20
2019-02-27T05:20:11.468Z,0.20
2019-02-27T05:25:02.520Z,0.20
2019-02-27T05:29:54.912Z,0.20
2019-02-27T05:34:49.741Z,0.20
2019-02-27T05:39:41.843Z,0.10
2019-02-27T05:44:34.470Z,0.10
2019-02-27T05:49:27.499Z,0.00
2019-02-27T05:54:20.088Z,0.00
2019-02-27T05:59:12.585Z,0.00
2019-02-27T06:04:05.060Z,-0.10
2019-02-27T06:08:57.850Z,-0.10
2019-02-27T06:13:50.359Z,-0.20
2019-02-27T06:18:42.600Z,-0.30
2019-02-27T06:23:35.395Z,-0.30
2019-02-27T06:28:29.745Z,-0.40
2019-02-27T06:33:22.488Z,-0.40
2019-02-27T06:38:15.184Z,-0.40
2019-02-27T06:43:07.853Z,-0.30
2019-02-27T06:48:00.561Z,-0.30
2019-02-27T06:52:53.167Z,-0.20
2019-02-27T06:57:45.504Z,0.00
2019-02-27T07:02:37.889Z,0.50
2019-02-27T07:07:31.306Z,1.20
2019-02-27T07:12:24.786Z,2.50
2019-02-27T07:17:17.392Z,4.50
2019-02-27T07:22:12.518Z,6.20
2019-02-27T07:27:04.000Z,7.60
2019-02-27T07:31:57.249Z,8.80
2019-02-27T07:36:49.582Z,10.10
2019-02-27T07:41:42.067Z,11.30
2019-02-27T07:46:35.557Z,12.40
2019-02-27T07:51:28.174Z,13.40
2019-02-27T07:56:20.636Z,13.70
2019-02-27T08:01:13.241Z,14.10
2019-02-27T08:06:05.753Z,14.80
2019-02-27T08:10:58.382Z,15.50
2019-02-27T08:15:50.934Z,16.20
2019-02-27T08:20:43.603Z,16.60
2019-02-27T08:25:36.288Z,17.10
2019-02-27T08:30:29.609Z,18.00
2019-02-27T08:35:22.393Z,18.50
2019-02-27T08:40:15.512Z,19.60
2019-02-27T08:45:19.320Z,19.90
2019-02-27T08:50:11.405Z,20.60
2019-02-27T08:55:05.721Z,21.00
2019-02-27T08:59:58.573Z,21.60
2019-02-27T09:04:50.869Z,22.00
2019-02-27T09:09:43.157Z,22.30
2019-02-27T09:14:35.749Z,23.20
2019-02-27T09:19:28.482Z,24.20
2019-02-27T09:24:21.125Z,24.00
2019-02-27T09:29:18.408Z,24.90
2019-02-27T09:34:08.043Z,25.60
2019-02-27T09:39:00.540Z,26.60
2019-02-27T09:43:52.846Z,27.50
2019-02-27T09:48:45.413Z,28.30
2019-02-27T09:53:37.702Z,29.20
2019-02-27T09:58:30.178Z,29.70
2019-02-27T10:03:22.818Z,29.40
2019-02-27T10:08:15.742Z,29.70
2019-02-27T10:13:08.478Z,30.60
2019-02-27T10:18:00.866Z,31.70
2019-02-27T10:22:53.968Z,31.40
2019-02-27T10:27:47.385Z,31.40
2019-02-27T10:32:40.211Z,31.30
2019-02-27T10:37:32.950Z,31.40
2019-02-27T10:42:25.365Z,32.30
2019-02-27T10:47:17.864Z,32.90
2019-02-27T10:52:10.835Z,32.90
2019-02-27T10:57:03.296Z,33.20
2019-02-27T11:01:55.644Z,33.90
2019-02-27T11:06:47.984Z,34.70
2019-02-27T11:11:40.385Z,34.50
2019-02-27T11:16:32.827Z,34.90
2019-02-27T11:21:25.274Z,35.20
2019-02-27T11:26:17.781Z,35.30
2019-02-27T11:31:11.053Z,35.00
2019-02-27T11:36:05.659Z,35.00
2019-02-27T11:40:58.009Z,34.10
2019-02-27T11:45:50.660Z,34.10
2019-02-27T11:50:43.048Z,34.60
2019-02-27T11:55:35.308Z,35.30
2019-02-27T12:00:29.382Z,34.80
2019-02-27T12:05:22.332Z,34.20
2019-02-27T12:10:20.225Z,33.80
2019-02-27T12:15:15.473Z,33.70
2019-02-27T12:20:09.737Z,33.80
2019-02-27T12:25:02.336Z,34.00
2019-02-27T12:29:54.697Z,34.10
2019-02-27T12:34:47.465Z,34.10
2019-02-27T12:39:39.901Z,34.10
2019-02-27T12:44:34.485Z,33.10
2019-02-27T12:49:26.744Z,31.50
2019-02-27T12:54:19.281Z,29.80
2019-02-27T12:59:11.979Z,29.10
2019-02-27T13:04:04.646Z,29.50
2019-02-27T13:08:57.290Z,28.60
2019-02-27T13:14:09.681Z,27.30
2019-02-27T13:19:06.358Z,26.50
2019-02-27T13:23:56.598Z,25.60
2019-02-27T13:28:49.706Z,24.40
2019-02-27T13:33:42.312Z,23.90
2019-02-27T13:38:34.692Z,24.00
2019-02-27T13:43:27.734Z,25.40
2019-02-27T13:48:20.203Z,26.00
2019-02-27T13:53:12.997Z,25.40
2019-02-27T13:58:05.419Z,24.30
2019-02-27T14:02:58.240Z,24.30
2019-02-27T14:07:51.156Z,24.80
2019-02-27T14:12:43.788Z,24.50
2019-02-27T14:17:36.369Z,24.30
2019-02-27T14:22:28.729Z,23.70
2019-02-27T14:27:21.334Z,22.60
2019-02-27T14:32:14.662Z,21.70
2019-02-27T14:37:07.679Z,20.90
2019-02-27T14:42:00.092Z,20.30
2019-02-27T14:46:52.581Z,19.80
2019-02-27T14:51:45.055Z,19.50
2019-02-27T14:56:37.808Z,19.30
2019-02-27T15:01:30.283Z,19.00
2019-02-27T15:06:22.710Z,18.80
2019-02-27T15:11:15.237Z,18.80
2019-02-27T15:16:07.971Z,18.60
2019-02-27T15:21:00.220Z,18.70
2019-02-27T15:25:52.620Z,18.70
2019-02-27T15:30:46.622Z,18.60
2019-02-27T15:35:39.747Z,18.30
2019-02-27T15:40:32.161Z,18.00
2019-02-27T15:45:25.921Z,17.80
2019-02-27T15:50:29.354Z,17.70
2019-02-27T15:55:21.837Z,17.60
2019-02-27T16:00:20.344Z,17.60
2019-02-27T16:05:14.636Z,17.50
2019-02-27T16:10:13.470Z,17.20
2019-02-27T16:15:09.381Z,17.00
2019-02-27T16:20:01.737Z,16.80
2019-02-27T16:24:54.481Z,16.70
2019-02-27T16:29:47.001Z,16.80
2019-02-27T16:34:39.350Z,16.70
2019-02-27T16:39:32.338Z,16.50
2019-02-27T16:44:25.052Z,16.20
2019-02-27T16:49:17.723Z,15.80
2019-02-27T16:54:10.406Z,15.30
2019-02-27T16:59:07.690Z,15.00
2019-02-27T17:04:00.322Z,14.60
2019-02-27T17:08:50.702Z,14.10
2019-02-27T17:13:43.524Z,13.70
2019-02-27T17:18:36.050Z,13.20
2019-02-27T17:23:28.925Z,12.80
2019-02-27T17:28:21.539Z,12.60
2019-02-27T17:33:15.779Z,12.30
2019-02-27T17:38:10.909Z,12.00
2019-02-27T17:43:02.625Z,11.70
2019-02-27T17:47:55.026Z,11.50
2019-02-27T17:52:49.098Z,11.10
2019-02-27T17:57:42.213Z,10.90
2019-02-27T18:02:34.820Z,10.70
2019-02-27T18:07:34.240Z,10.60
2019-02-27T18:12:21.657Z,10.40
2019-02-27T18:17:14.291Z,10.20
2019-02-27T18:22:07.048Z,9.90
2019-02-27T18:26:59.673Z,9.70
2019-02-27T18:31:52.030Z,9.50
2019-02-27T18:36:46.496Z,9.30
2019-02-27T18:41:39.757Z,9.00
2019-02-27T18:46:32.210Z,8.90
2019-02-27T18:51:24.736Z,8.80
2019-02-27T18:56:17.426Z,8.70
2019-02-27T19:01:10.726Z,8.50
2019-02-27T19:06:03.179Z,8.30
2019-02-27T19:10:55.769Z,8.20
2019-02-27T19:15:48.481Z,8.00
2019-02-27T19:20:44.930Z,7.80
2019-02-27T19:25:37.348Z,7.60
2019-02-27T19:30:30.889Z,7.50
2019-02-27T19:35:23.713Z,7.40
2019-02-27T19:40:20.749Z,7.30
2019-02-27T19:45:13.305Z,7.20
2019-02-27T19:50:11.213Z,7.10
2019-02-27T19:55:02.565Z,6.80
2019-02-27T19:59:58.700Z,6.60
2019-02-27T20:04:48.835Z,6.40
2019-02-27T20:09:41.198Z,6.40
2019-02-27T20:14:36.808Z,6.30
2019-02-27T20:19:29.051Z,6.30
2019-02-27T20:24:22.061Z,6.20
2019-02-27T20:29:14.871Z,6.10
2019-02-27T20:34:10.729Z,6.00
2019-02-27T20:39:03.307Z,6.00
2019-02-27T20:43:55.505Z,5.80
2019-02-27T20:48:47.995Z,5.70
2019-02-27T20:53:40.675Z,5.70
2019-02-27T20:58:33.161Z,5.60
2019-02-27T21:03:27.199Z,5.50
2019-02-27T21:08:20.208Z,5.40
2019-02-27T21:13:16.022Z,5.20
2019-02-27T21:18:07.060Z,5.00
2019-02-27T21:23:00.259Z,4.90
2019-02-27T21:27:53.830Z,4.70
2019-02-27T21:32:46.365Z,4.70
2019-02-27T21:37:44.600Z,4.60
2019-02-27T21:42:32.974Z,4.50
2019-02-27T21:47:25.612Z,4.40
2019-02-27T21:52:21.604Z,4.30
2019-02-27T21:57:11.988Z,4.40
2019-02-27T22:02:04.681Z,4.30
2019-02-27T22:06:58.476Z,4.10
2019-02-27T22:11:51.345Z,3.90
2019-02-27T22:16:43.987Z,3.70
2019-02-27T22:21:36.593Z,3.60
2019-02-27T22:26:29.238Z,3.60
2019-02-27T22:31:21.842Z,3.50
2019-02-27T22:36:14.390Z,3.40
2019-02-27T22:41:09.547Z,3.30
2019-02-27T22:46:00.789Z,3.30
2019-02-27T22:50:53.207Z,3.30
2019-02-27T22:55:46.177Z,3.30
2019-02-27T23:00:56.358Z,3.20
2019-02-27T23:05:48.529Z,3.20
2019-02-27T23:10:41.165Z,3.20
2019-02-27T23:15:33.724Z,3.20
2019-02-27T23:20:26.218Z,3.10
2019-02-27T23:25:18.772Z,3.00
2019-02-27T23:30:15.954Z,2.80
2019-02-27T23:35:06.512Z,2.70
2019-02-27T23:39:58.685Z,2.60
2019-02-27T23:44:51.254Z,2.50
2019-02-27T23:49:43.780Z,2.40
2019-02-27T23:54:36.632Z,2.30
2019-02-27T23:59:28.912Z,2.30
